Metar Cercanos

 

LEPA - Palma De Mallorc, Spain
Distance from station: ONO 38km
Actualización: 12/12/2017 01:30
Few Clouds
Few Clouds
 Viento del calm
Viento: Calma
Temperatura: 9°C
Rocío: 7°C
Humedad: 87%
Barómetro: 1005 hPa
Clouds: Few Clouds
Visibility: 10 km
Cloud details: Few Clouds 762 m
2017/12/12 00:30 LEPA 120030Z 00000KT 9999 FEW025 09/07 Q1005 NOSIG
LEMH - Mahon/Menorca Is, Spain
Distance from station: ENE 105km
Actualización: 12/12/2017 01:30
Despejado
Despejado
 Viento del O
Viento: O 6 km/h
Temperatura: 11°C
Rocío: 7°C
Humedad: 77%
Barómetro: 1006 hPa
Resumen: Despejado
Visibility: greater than 10 km
2017/12/12 00:30 LEMH 120030Z AUTO 26003KT CAVOK 11/07 Q1006
 
LEIB - Ibiza/Es Codola, Spain
Distance from station: OSO 165km
Actualización: 12/12/2017 00:00
NOT Current
Few Clouds
Few Clouds
 Viento del O
Viento: O 17 km/h
Temperatura: 13°C
Rocío: 4°C
Humedad: 55%
Barómetro: 1005 hPa
Clouds: Few Clouds
Visibility: 10 km
Cloud details: Few Clouds 762 m
2017/12/11 23:00 LEIB 112300Z 27009KT 9999 FEW025 13/04 Q1005 NOSIG
LEBL - Barcelona Airpor, Spain
Distance from station: NNO 225km
Actualización: 12/12/2017 01:30
Few Clouds
Few Clouds
 Viento del NO
Viento: NO 11 km/h
Temperatura: 7°C
Sensación frio: 5°C
Rocío: 3°C
Humedad: 76%
Barómetro: 1004 hPa
Clouds: Few Clouds
Visibility: 10 km
Cloud details: Few Clouds 762 m
2017/12/12 00:30 LEBL 120030Z 31006KT 9999 FEW025 07/03 Q1004 NOSIG
 
LEVC - Valencia (civ/Mi, Spain
Distance from station: NO 188km
Actualización: 12/12/2017 01:30
Despejado
Despejado
 Viento del OSO
Viento: OSO 15 km/h
Temperatura: 8°C
Sensación frio: 5°C
Rocío: 4°C
Humedad: 76%
Barómetro: 1006 hPa
Resumen: Despejado
Visibility: greater than 10 km
2017/12/12 00:30 LEVC 120030Z 24008KT CAVOK 08/04 Q1006 NOSIG
LEGE - Gerona/Costa Bra, Spain
Distance from station: N 276km
Actualización: 12/12/2017 01:30
Few Clouds
Few Clouds
 Viento del NNE
Viento: NNE 6 km/h
Temperatura: 3°C
Rocío: 3°C
Humedad: 100%
Barómetro: 1004 hPa
Clouds: Few Clouds
Visibility: 10 km
Cloud details: Few Clouds 1067 m
2017/12/12 00:30 LEGE 120030Z 02003KT 260V070 9999 FEW035 03/03 Q1004
 
LEAL - Alicante/El Alte, Spain
Distance from station: OSO 344km
Actualización: 12/12/2017 01:30
Despejado
Despejado
 Viento del NO
Viento: NO 15 km/h
Temperatura: 9°C
Sensación frio: 7°C
Rocío: 3°C
Humedad: 66%
Barómetro: 1007 hPa
Resumen: Despejado
Visibility: greater than 10 km
2017/12/12 00:30 LEAL 120030Z 31008KT CAVOK 09/03 Q1007 NOSIG
LEAM - Almeria Airport, Spain
Distance from station: SSO 56km
Actualización: 12/12/2017 01:30
Despejado
Despejado
 Viento del NE
Viento: NE 7 km/h
Temperatura: 9°C
Sensación frio: 8°C
Rocío: 2°C
Humedad: 62%
Barómetro: 1007 hPa
Clouds: Despejado
Visibility: 10 km
2017/12/12 00:30 LEAM 120030Z AUTO 04004KT 350V100 9999 NCD 09/02 Q1007
 
LEZG - Zaragoza (mil/Ci, Spain
Distance from station: NO 431km
Actualización: 12/12/2017 01:30
Parcialmente nuboso
Parcialmente nuboso
 Viento del O
Viento: O 20 km/h
Temperatura: 7°C
Sensación frio: 4°C
Rocío: 2°C
Humedad: 71%
Barómetro: 1007 hPa
Clouds: Parcialmente nuboso
Visibility: 10 km
Cloud details: Few Clouds 1829 m
Parcialmente nuboso 2134 m
2017/12/12 00:30 LEZG 120030Z 28011KT 9999 FEW060 SCT070 07/02 Q1007
LEMD - Madrid/Barajas, Spain
Distance from station: ONO 234km
Actualización: 12/12/2017 01:30
Few Clouds
Few Clouds
 Viento del NNE
Viento: NNE 19 km/h
Temperatura: 4°C
Sensación frio: 0°C
Rocío: -3°C
Humedad: 61%
Barómetro: 1008 hPa
Clouds: Few Clouds
Visibility: 10 km
Cloud details: Few Clouds 2438 m
2017/12/12 00:30 LEMD 120030Z 02010KT 9999 FEW080 04/M03 Q1008 NOSIG
 
LEGR - Granada Airport, Spain
Distance from station: OSO 62km
Actualización: 12/12/2017 01:30
Despejado
Despejado
 Viento del varies
Viento: varies 2 km/h
Temperatura: 5°C
Rocío: 4°C
Humedad: 93%
Barómetro: 1008 hPa
Clouds: Despejado
Visibility: 10 km
2017/12/12 00:30 LEGR 120030Z AUTO VRB01KT 9999 NCD 05/04 Q1008
LEMG - Malaga (civ/Mil), Spain
Distance from station: OSO 227km
Actualización: 12/12/2017 01:30
Parcialmente nuboso
Parcialmente nuboso
 Viento del NO
Viento: NO 6 km/h
Temperatura: 9°C
Rocío: 5°C
Humedad: 76%
Barómetro: 1009 hPa
Clouds: Parcialmente nuboso
Visibility: 10 km
Cloud details: Parcialmente nuboso 1829 m
2017/12/12 00:30 LEMG 120030Z 32003KT 9999 SCT060 09/05 Q1009 NOSIG
 
LEZL - Sevilla (civ/Mil, Spain
Distance from station: S 318km
Actualización: 12/12/2017 01:30
Despejado
Despejado
 Viento del ONO
Viento: ONO 13 km/h
Temperatura: 10°C
Sensación frio: 8°C
Rocío: 6°C
Humedad: 76%
Barómetro: 1010 hPa
Clouds: Despejado
Visibility: 10 km
2017/12/12 00:30 LEZL 120030Z AUTO 29007KT 9999 NCD 10/06 Q1010
LEVT - Vitoria, Spain
Distance from station: NO 226km
Actualización: 12/12/2017 01:30
Parcialmente nuboso
Parcialmente nuboso
 Viento del O
Viento: O 9 km/h
Temperatura: 2°C
Sensación frio: -1°C
Rocío: 0°C
Humedad: 87%
Barómetro: 1008 hPa
Clouds: Parcialmente nuboso
Visibility: 10 km
Cloud details: Few Clouds 427 m
Parcialmente nuboso 853 m
2017/12/12 00:30 LEVT 120030Z 26005KT 220V300 9999 FEW014 SCT028 02/00 Q1008
 
LEBB - Bilbao/Sondica, Spain
Distance from station: NNO 235km
Actualización: 12/12/2017 01:30
Parcialmente nuboso
Parcialmente nuboso
 Viento del varies
Viento: varies 4 km/h
Temperatura: 7°C
Rocío: 4°C
Humedad: 81%
Barómetro: 1008 hPa
Clouds: Parcialmente nuboso
Visibility: 10 km
Cloud details: Few Clouds 975 m
Parcialmente nuboso 1341 m
2017/12/12 00:30 LEBB 120030Z AUTO VRB02KT 9999 FEW032/// SCT044/// 07/04 Q1008
LESO - San Sebastian/Fu, Spain
Distance from station: N 231km
Actualización: 12/12/2017 01:30
Lluvia débil, Muy nuboso
Lluvia débil, Muy nuboso
 Viento del SO
Viento: SO 28 km/h
Temperatura: 6°C
Sensación frio: 2°C
Rocío: 4°C
Humedad: 87%
Barómetro: 1007 hPa
Resumen: Lluvia débil
Clouds: Muy nuboso
Visibility: 7 km
Cloud details: Parcialmente nuboso 579 m
Muy nuboso 792 m
Muy nuboso 1067 m
2017/12/12 00:30 LESO 120030Z AUTO 22015KT 7000 -RA SCT019/// BKN026/// BKN035/// 06/04 Q1007 RETS
 
LEVD - Valladolid(Mil/C, Spain
Distance from station: ONO 239km
Actualización: 11/12/2017 21:30
NOT Current
Despejado
Despejado
 Viento del NO
Viento: NO 17 km/h
Temperatura: 1°C
Sensación frio: -3°C
Rocío: -3°C
Humedad: 75%
Barómetro: 1005 hPa
Resumen: Despejado
Visibility: greater than 10 km
2017/12/11 20:30 LEVD 112030Z 31009KT CAVOK 01/M03 Q1005
LESA - Salamanca (civ/M, Spain
Distance from station: ONO 349km
Actualización: 11/12/2017 20:00
NOT Current
Few Clouds
Few Clouds
 Viento del ONO
Viento: ONO 22 km/h
Temperatura: 3°C
Sensación frio: -2°C
Rocío: 1°C
Humedad: 87%
Barómetro: 1003 hPa
Clouds: Few Clouds
Visibility: 10 km
Cloud details: Few Clouds 518 m
2017/12/11 19:00 LESA 111900Z 30012KT 9999 FEW017 03/01 Q1003
 
LEXJ - Santander/Paraya, Spain
Distance from station: NNO 247km
Actualización: 12/12/2017 01:30
Few Clouds
Few Clouds
 Viento del NNO
Viento: NNO 19 km/h
Temperatura: 10°C
Sensación frio: 7°C
Rocío: 2°C
Humedad: 58%
Barómetro: 1008 hPa
Clouds: Few Clouds
Visibility: 7 km
Cloud details: Few Clouds 2134 m
2017/12/12 00:30 LEXJ 120030Z AUTO 34010KT 280V020 7000 FEW070 10/02 Q1008
LEAS - Asturias/Aviles, Spain
Distance from station: NO 214km
Actualización: 12/12/2017 01:30
Mist, Muy nuboso
Mist, Muy nuboso
 Viento del SO
Viento: SO 13 km/h
Temperatura: 7°C
Sensación frio: 5°C
Rocío: 5°C
Humedad: 87%
Barómetro: 1010 hPa
Resumen: Mist
Clouds: Muy nuboso
Visibility: 4 km
Cloud details: Few Clouds 1067 m
Parcialmente nuboso 1372 m
Muy nuboso 1768 m
2017/12/12 00:30 LEAS 120030Z AUTO 23007KT 4400 BR FEW035/// SCT045/// BKN058/// 07/05 Q1010
 
LECO - La Coruna/Alvedr, Spain
Distance from station: ONO 222km
Actualización: 12/12/2017 01:30
Few Clouds
Few Clouds
 Viento del NNO
Viento: NNO 15 km/h
Temperatura: 10°C
Sensación frio: 8°C
Rocío: 4°C
Humedad: 67%
Barómetro: 1013 hPa
Clouds: Few Clouds
Visibility: 10 km
Cloud details: Few Clouds 1158 m
2017/12/12 00:30 LECO 120030Z AUTO 34008KT 310V010 9999 FEW038/// 10/04 Q1013
LEVX - Vigo/Peinador, Spain
Distance from station: O 214km
Actualización: 12/12/2017 01:30
Despejado
Despejado
 Viento del calm
Viento: Calma
Temperatura: 4°C
Rocío: 3°C
Humedad: 93%
Barómetro: 1013 hPa
Resumen: Despejado
Visibility: greater than 10 km
2017/12/12 00:30 LEVX 120030Z 00000KT CAVOK 04/03 Q1013 NOSIG